Flight Track Log - Related Links

Times and Time Zones

All times are in EDT time to prevent confusion due to time zone crossing. See the VNR160 flight status page for this flight to view local times or setup timezone preferences in your user account.


Time Position Orientation Groundspeed Altitude Reporting Facility
EDT Latitude Longitude Course Direction KTS MPH feet Rate Location/Type
Fri 09:46:23 PM 36.1900 -115.1758 172° South 137 158 3,200  Level Los Angeles Center
Fri 09:46:40 PM 36.1822 -115.1744 172° South 141 162 3,500 1,443 Climbing Los Angeles Center
Fri 09:47:42 PM 36.1642 -115.2189 243° Southwest 189 217 5,100 1,694 Climbing Los Angeles Center
Fri 09:48:44 PM 36.1989 -115.2661 312° West 189 217 7,000 1,951 Climbing Los Angeles Center
Fri 09:49:45 PM 36.2236 -115.3283 296° West 196 226 9,100 2,146 Climbing Los Angeles Center
Fri 09:50:47 PM 36.2503 -115.3917 298° West 204 235 11,400 2,129 Climbing Los Angeles Center
Fri 09:51:49 PM 36.2814 -115.4675 297° West 205 236 13,500 1,839 Climbing Los Angeles Center
Fri 09:52:51 PM 36.3111 -115.5394 297° West 225 259 15,200 1,645 Climbing Los Angeles Center
Fri 09:53:53 PM 36.3419 -115.6139 297° West 259 298 16,900 1,951 Climbing Los Angeles Center
Fri 09:54:54 PM 36.3789 -115.7031 297° West 246 283 19,200 1,805 Climbing Los Angeles Center
Fri 09:55:56 PM 36.4119 -115.7828 297° West 255 293 20,600 1,355 Climbing Los Angeles Center
Fri 09:56:58 PM 36.4472 -115.8694 297° West 277 319 22,000 1,452 Climbing Los Angeles Center
Fri 09:58:00 PM 36.4850 -115.9672 296° West 290 334 23,600 1,610 Climbing Los Angeles Center
Fri 09:59:01 PM 36.5244 -116.0575 299° West 291 335 25,300 1,171 Climbing Los Angeles Center
Fri 10:00:03 PM 36.5603 -116.1489 296° West 293 337 26,000 339 Climbing Los Angeles Center
Fri 10:01:05 PM 36.6036 -116.2514 298° West 332 382 26,000  Level Los Angeles Center
Fri 10:02:18 PM 36.6481 -116.3628 296° West 353 406 26,000  Level Los Angeles Center
Fri 10:03:21 PM 36.7058 -116.4997 298° West 371 427 26,000  Level Los Angeles Center
Fri 10:04:22 PM 36.7550 -116.6139 298° West 373 429 26,000  Level Los Angeles Center
Fri 10:05:24 PM 36.8044 -116.7303 298° West 379 436 26,000  Level Los Angeles Center
Fri 10:06:26 PM 36.8647 -116.8683 299° West 377 434 26,000  Level Los Angeles Center
Fri 10:07:27 PM 36.9147 -116.9858 298° West 382 440 26,000  Level Los Angeles Center
Fri 10:08:29 PM 36.9653 -117.1036 298° West 383 441 26,000  Level Los Angeles Center
Fri 10:09:31 PM 37.0156 -117.2236 298° West 387 445 26,000  Level Los Angeles Center
Fri 10:10:20 PM 37.0542 -117.3189 297° West 386 444 26,000  Level Oakland Center
Fri 10:11:21 PM 37.1044 -117.4369 298° West 385 443 26,000  Level Oakland Center
Fri 10:12:22 PM 37.1542 -117.5567 298° West 386 444 26,000  Level Oakland Center
Fri 10:13:23 PM 37.2044 -117.6761 298° West 386 444 26,000  Level Oakland Center
Fri 10:14:24 PM 37.2533 -117.7961 297° West 386 444 26,000  Level Oakland Center
Fri 10:15:25 PM 37.3042 -117.9172 298° West 389 448 26,000  Level Oakland Center
Fri 10:16:26 PM 37.3544 -118.0400 297° West 393 452 26,000  Level Oakland Center
Fri 10:17:27 PM 37.4042 -118.1611 297° West 390 449 26,000  Level Oakland Center
Fri 10:18:29 PM 37.4647 -118.3069 298° West 390 449 26,000  Level Oakland Center
Fri 10:19:30 PM 37.5142 -118.4286 297° West 390 449 26,000  Level Oakland Center
Fri 10:20:31 PM 37.5642 -118.5514 297° West 391 450 26,000  Level Oakland Center
Fri 10:21:32 PM 37.6136 -118.6742 297° West 392 451 26,000  Level Oakland Center
Fri 10:22:33 PM 37.6622 -118.7953 297° West 390 449 26,000  Level Oakland Center
Fri 10:23:34 PM 37.7064 -118.9072 297° West 386 444 26,000 -492 Level Oakland Center
Fri 10:24:35 PM 37.7558 -119.0297 297° West 390 449 25,000 -984 Descending Oakland Center
Fri 10:25:36 PM 37.8064 -119.1550 297° West 399 459 24,000 -689 Descending Oakland Center
Fri 10:26:37 PM 37.8653 -119.3025 297° West 393 452 23,600 -689 Descending Oakland Center
Fri 10:27:38 PM 37.9117 -119.4208 296° West 381 438 22,600 -787 Descending Oakland Center
Fri 10:28:39 PM 37.9600 -119.5392 297° West 377 434 22,000 -293 Descending Oakland Center
Fri 10:29:41 PM 38.0072 -119.6572 297° West 377 434 22,000  Level Oakland Center
Fri 10:30:42 PM 38.0517 -119.7736 296° West 369 425 22,000  Level Oakland Center
Fri 10:31:43 PM 38.0967 -119.8903 296° West 368 423 22,000  Level Oakland Center
Fri 10:32:44 PM 38.1406 -120.0053 296° West 363 418 22,000 -443 Level Oakland Center
Fri 10:33:45 PM 38.1844 -120.1203 296° West 361 415 21,100 -1,377 Descending Oakland Center
Fri 10:34:46 PM 38.2286 -120.2333 296° West 358 412 19,200 -1,869 Descending Oakland Center
Fri 10:35:47 PM 38.2697 -120.3417 296° West 344 396 17,300 -1,672 Descending Oakland Center
Fri 10:36:48 PM 38.3117 -120.4483 297° West 340 391 15,800 -1,512 Descending Oakland Center
Fri 10:37:50 PM 38.3508 -120.5536 295° West 331 381 14,200 -1,659 Descending Oakland Center
Fri 10:38:51 PM 38.3983 -120.6794 296° West 330 380 12,400 -1,475 Descending Oakland Center
Fri 10:39:52 PM 38.4350 -120.7767 296° West 310 357 11,200 -1,180 Descending Oakland Center
Fri 10:40:53 PM 38.4692 -120.8692 295° West 291 335 10,000 -1,230 Descending Oakland Center
Fri 10:41:54 PM 38.5017 -120.9631 294° West 291 335 8,700 -1,707 Descending Oakland Center
Fri 10:42:56 PM 38.5300 -121.0556 291° West 284 327 6,500 -2,049 Descending Oakland Center
Fri 10:43:57 PM 38.5442 -121.1575 280° West 267 307 4,500 -1,623 Descending Oakland Center
Fri 10:44:58 PM 38.5458 -121.2442 271° West 249 287 3,200 -836 Descending Oakland Center
Fri 10:45:59 PM 38.5594 -121.3225 283° West 229 264 2,800 -864 Descending Oakland Center
Fri 10:47:03 PM 38.5833 -121.3833 297° West 202 232 1,400 -1,065 Descending Northern Cal TRACON
Fri 10:48:03 PM 38.6167 -121.4000 339° North 134 154 600 -800 Descending Northern Cal TRACON

Login

Don't have an account? Register now (free) for customized features, flight alerts, and more!